sensor_id;sensor_type;location;lat;lon;timestamp;temperature;humidity
2100;DHT22;1055;48.854;9.302;2023-03-30T00:01:13;15.50;99.90
2100;DHT22;1055;48.854;9.302;2023-03-30T00:03:39;15.40;99.90
2100;DHT22;1055;48.854;9.302;2023-03-30T00:06:08;15.50;99.90
2100;DHT22;1055;48.854;9.302;2023-03-30T00:08:35;15.40;99.90
2100;DHT22;1055;48.854;9.302;2023-03-30T00:11:08;15.50;99.90
2100;DHT22;1055;48.854;9.302;2023-03-30T00:13:35;15.50;99.90
2100;DHT22;1055;48.854;9.302;2023-03-30T00:16:01;15.50;99.90
2100;DHT22;1055;48.854;9.302;2023-03-30T00:18:27;15.50;99.90
2100;DHT22;1055;48.854;9.302;2023-03-30T00:20:54;15.80;99.90
2100;DHT22;1055;48.854;9.302;2023-03-30T00:23:20;15.80;99.90
2100;DHT22;1055;48.854;9.302;2023-03-30T00:25:47;15.70;99.90
2100;DHT22;1055;48.854;9.302;2023-03-30T00:28:13;15.80;99.90
2100;DHT22;1055;48.854;9.302;2023-03-30T00:30:38;16.00;99.90
2100;DHT22;1055;48.854;9.302;2023-03-30T00:33:04;16.00;99.90
2100;DHT22;1055;48.854;9.302;2023-03-30T00:35:30;16.00;99.90
2100;DHT22;1055;48.854;9.302;2023-03-30T00:37:56;16.10;99.90
2100;DHT22;1055;48.854;9.302;2023-03-30T00:40:26;15.90;99.90
2100;DHT22;1055;48.854;9.302;2023-03-30T00:43:12;16.10;99.90
2100;DHT22;1055;48.854;9.302;2023-03-30T00:45:38;16.00;99.90
2100;DHT22;1055;48.854;9.302;2023-03-30T00:48:13;16.10;99.90
2100;DHT22;1055;48.854;9.302;2023-03-30T00:50:44;16.20;99.90
2100;DHT22;1055;48.854;9.302;2023-03-30T00:53:22;16.20;99.90
2100;DHT22;1055;48.854;9.302;2023-03-30T00:55:49;16.30;99.90
2100;DHT22;1055;48.854;9.302;2023-03-30T00:58:17;16.40;99.90
2100;DHT22;1055;48.854;9.302;2023-03-30T01:00:44;16.40;99.90
2100;DHT22;1055;48.854;9.302;2023-03-30T01:03:22;16.30;99.90
2100;DHT22;1055;48.854;9.302;2023-03-30T01:05:53;16.20;99.90
2100;DHT22;1055;48.854;9.302;2023-03-30T01:08:20;16.10;99.90
2100;DHT22;1055;48.854;9.302;2023-03-30T01:10:49;16.20;99.90
2100;DHT22;1055;48.854;9.302;2023-03-30T01:13:17;15.80;99.90
2100;DHT22;1055;48.854;9.302;2023-03-30T01:27:52;15.20;99.90
2100;DHT22;1055;48.854;9.302;2023-03-30T01:48:48;15.40;99.90
2100;DHT22;1055;48.854;9.302;2023-03-30T01:51:22;15.20;99.90
2100;DHT22;1055;48.854;9.302;2023-03-30T01:54:06;15.20;99.90
2100;DHT22;1055;48.854;9.302;2023-03-30T01:56:40;15.00;99.90
2100;DHT22;1055;48.854;9.302;2023-03-30T01:59:17;15.10;99.90
2100;DHT22;1055;48.854;9.302;2023-03-30T02:01:45;14.90;99.90
2100;DHT22;1055;48.854;9.302;2023-03-30T02:04:18;14.90;99.90
2100;DHT22;1055;48.854;9.302;2023-03-30T02:06:54;14.90;99.90
2100;DHT22;1055;48.854;9.302;2023-03-30T02:09:25;14.90;99.90
2100;DHT22;1055;48.854;9.302;2023-03-30T02:11:52;14.90;99.90
2100;DHT22;1055;48.854;9.302;2023-03-30T02:14:23;14.90;99.90
2100;DHT22;1055;48.854;9.302;2023-03-30T02:16:54;15.00;99.90
2100;DHT22;1055;48.854;9.302;2023-03-30T02:19:20;15.00;99.90
2100;DHT22;1055;48.854;9.302;2023-03-30T02:21:46;15.00;99.90
2100;DHT22;1055;48.854;9.302;2023-03-30T02:24:18;14.80;99.90
2100;DHT22;1055;48.854;9.302;2023-03-30T02:26:45;14.90;99.90
2100;DHT22;1055;48.854;9.302;2023-03-30T02:29:13;14.80;99.90
2100;DHT22;1055;48.854;9.302;2023-03-30T02:31:39;14.80;99.90
2100;DHT22;1055;48.854;9.302;2023-03-30T02:34:12;14.80;99.90
2100;DHT22;1055;48.854;9.302;2023-03-30T02:42:30;14.80;99.90
2100;DHT22;1055;48.854;9.302;2023-03-30T02:45:32;14.90;99.90
2100;DHT22;1055;48.854;9.302;2023-03-30T02:51:27;14.90;99.90
2100;DHT22;1055;48.854;9.302;2023-03-30T02:54:20;14.90;99.90
2100;DHT22;1055;48.854;9.302;2023-03-30T02:57:10;15.00;99.90
2100;DHT22;1055;48.854;9.302;2023-03-30T03:02:14;15.00;99.90
2100;DHT22;1055;48.854;9.302;2023-03-30T03:04:42;14.90;99.90
2100;DHT22;1055;48.854;9.302;2023-03-30T03:07:12;14.80;99.90
2100;DHT22;1055;48.854;9.302;2023-03-30T03:09:38;14.70;99.90
2100;DHT22;1055;48.854;9.302;2023-03-30T03:12:04;14.70;99.90
2100;DHT22;1055;48.854;9.302;2023-03-30T03:14:30;15.00;99.90
2100;DHT22;1055;48.854;9.302;2023-03-30T03:16:56;15.00;99.90
2100;DHT22;1055;48.854;9.302;2023-03-30T03:19:21;14.40;99.90
2100;DHT22;1055;48.854;9.302;2023-03-30T03:21:47;14.20;99.90
2100;DHT22;1055;48.854;9.302;2023-03-30T03:24:13;14.00;99.90
2100;DHT22;1055;48.854;9.302;2023-03-30T03:26:42;13.80;99.90
2100;DHT22;1055;48.854;9.302;2023-03-30T03:29:08;13.70;99.90
2100;DHT22;1055;48.854;9.302;2023-03-30T03:31:33;13.80;99.90
2100;DHT22;1055;48.854;9.302;2023-03-30T03:34:00;13.80;99.90
2100;DHT22;1055;48.854;9.302;2023-03-30T03:36:26;13.80;99.90
2100;DHT22;1055;48.854;9.302;2023-03-30T03:38:52;13.70;99.90
2100;DHT22;1055;48.854;9.302;2023-03-30T03:41:17;13.80;99.90
2100;DHT22;1055;48.854;9.302;2023-03-30T03:43:43;14.10;99.90
2100;DHT22;1055;48.854;9.302;2023-03-30T03:46:09;13.70;99.90
2100;DHT22;1055;48.854;9.302;2023-03-30T03:48:37;13.70;99.90
2100;DHT22;1055;48.854;9.302;2023-03-30T03:51:06;13.80;99.90
2100;DHT22;1055;48.854;9.302;2023-03-30T03:53:35;13.60;99.90
2100;DHT22;1055;48.854;9.302;2023-03-30T03:56:03;13.20;99.90
2100;DHT22;1055;48.854;9.302;2023-03-30T03:58:31;13.00;99.90
2100;DHT22;1055;48.854;9.302;2023-03-30T04:01:00;13.00;99.90
2100;DHT22;1055;48.854;9.302;2023-03-30T04:03:28;13.00;99.90
2100;DHT22;1055;48.854;9.302;2023-03-30T04:05:56;13.00;99.90
2100;DHT22;1055;48.854;9.302;2023-03-30T04:08:22;13.00;99.90
2100;DHT22;1055;48.854;9.302;2023-03-30T04:10:50;13.10;99.90
2100;DHT22;1055;48.854;9.302;2023-03-30T04:13:15;13.10;99.90
2100;DHT22;1055;48.854;9.302;2023-03-30T04:15:41;13.30;99.90
2100;DHT22;1055;48.854;9.302;2023-03-30T04:18:06;13.30;99.90
2100;DHT22;1055;48.854;9.302;2023-03-30T04:20:33;13.40;99.90
2100;DHT22;1055;48.854;9.302;2023-03-30T04:22:58;13.40;99.90
2100;DHT22;1055;48.854;9.302;2023-03-30T04:25:26;13.50;99.90
2100;DHT22;1055;48.854;9.302;2023-03-30T04:27:53;13.50;99.90
2100;DHT22;1055;48.854;9.302;2023-03-30T04:30:21;13.40;99.90
2100;DHT22;1055;48.854;9.302;2023-03-30T04:32:47;13.30;99.90
2100;DHT22;1055;48.854;9.302;2023-03-30T04:35:28;13.60;99.90
2100;DHT22;1055;48.854;9.302;2023-03-30T04:37:53;13.90;99.90
2100;DHT22;1055;48.854;9.302;2023-03-30T04:40:19;14.00;99.90
2100;DHT22;1055;48.854;9.302;2023-03-30T04:42:45;14.10;99.90
2100;DHT22;1055;48.854;9.302;2023-03-30T04:45:14;14.20;99.90
2100;DHT22;1055;48.854;9.302;2023-03-30T04:47:43;14.20;99.90
2100;DHT22;1055;48.854;9.302;2023-03-30T04:50:09;14.30;99.90
2100;DHT22;1055;48.854;9.302;2023-03-30T04:52:35;14.30;99.90
2100;DHT22;1055;48.854;9.302;2023-03-30T04:55:00;14.20;99.90
2100;DHT22;1055;48.854;9.302;2023-03-30T04:57:26;14.40;99.90
2100;DHT22;1055;48.854;9.302;2023-03-30T04:59:51;14.50;99.90
2100;DHT22;1055;48.854;9.302;2023-03-30T05:02:17;14.70;99.90
2100;DHT22;1055;48.854;9.302;2023-03-30T05:04:42;14.20;99.90
2100;DHT22;1055;48.854;9.302;2023-03-30T05:07:08;14.20;99.90
2100;DHT22;1055;48.854;9.302;2023-03-30T05:09:34;14.40;99.90
2100;DHT22;1055;48.854;9.302;2023-03-30T05:11:59;14.20;99.90
2100;DHT22;1055;48.854;9.302;2023-03-30T05:14:25;14.10;99.90
2100;DHT22;1055;48.854;9.302;2023-03-30T05:16:51;13.90;99.90
2100;DHT22;1055;48.854;9.302;2023-03-30T05:19:16;13.60;99.90
2100;DHT22;1055;48.854;9.302;2023-03-30T05:21:42;13.60;99.90
2100;DHT22;1055;48.854;9.302;2023-03-30T05:24:08;13.70;99.90
2100;DHT22;1055;48.854;9.302;2023-03-30T05:26:34;14.00;99.90
2100;DHT22;1055;48.854;9.302;2023-03-30T05:28:59;14.00;99.90
2100;DHT22;1055;48.854;9.302;2023-03-30T05:31:25;14.10;99.90
2100;DHT22;1055;48.854;9.302;2023-03-30T05:33:50;14.20;99.90
2100;DHT22;1055;48.854;9.302;2023-03-30T05:36:17;13.80;99.90
2100;DHT22;1055;48.854;9.302;2023-03-30T05:38:43;13.60;99.90
2100;DHT22;1055;48.854;9.302;2023-03-30T05:41:08;13.40;99.90
2100;DHT22;1055;48.854;9.302;2023-03-30T05:43:34;13.50;99.90
2100;DHT22;1055;48.854;9.302;2023-03-30T05:46:01;13.50;99.90
2100;DHT22;1055;48.854;9.302;2023-03-30T05:48:30;13.40;99.90
2100;DHT22;1055;48.854;9.302;2023-03-30T05:50:55;13.40;99.90
2100;DHT22;1055;48.854;9.302;2023-03-30T05:53:21;13.30;99.90
2100;DHT22;1055;48.854;9.302;2023-03-30T05:55:47;13.30;99.90
2100;DHT22;1055;48.854;9.302;2023-03-30T05:58:14;13.50;99.90
2100;DHT22;1055;48.854;9.302;2023-03-30T06:00:41;13.40;99.90
2100;DHT22;1055;48.854;9.302;2023-03-30T06:03:07;13.30;99.90
2100;DHT22;1055;48.854;9.302;2023-03-30T06:05:34;13.20;99.90
2100;DHT22;1055;48.854;9.302;2023-03-30T06:08:00;13.20;99.90
2100;DHT22;1055;48.854;9.302;2023-03-30T06:10:26;13.20;99.90
2100;DHT22;1055;48.854;9.302;2023-03-30T06:12:52;13.20;99.90
2100;DHT22;1055;48.854;9.302;2023-03-30T06:15:17;13.40;99.90
2100;DHT22;1055;48.854;9.302;2023-03-30T06:17:43;13.40;99.90
2100;DHT22;1055;48.854;9.302;2023-03-30T06:20:09;13.40;99.90
2100;DHT22;1055;48.854;9.302;2023-03-30T06:22:38;13.40;99.90
2100;DHT22;1055;48.854;9.302;2023-03-30T06:25:04;13.40;99.90
2100;DHT22;1055;48.854;9.302;2023-03-30T06:27:30;13.60;99.90
2100;DHT22;1055;48.854;9.302;2023-03-30T06:29:57;13.70;99.90
2100;DHT22;1055;48.854;9.302;2023-03-30T06:32:23;13.60;99.90
2100;DHT22;1055;48.854;9.302;2023-03-30T06:34:48;13.50;99.90
2100;DHT22;1055;48.854;9.302;2023-03-30T06:37:14;13.40;99.90
2100;DHT22;1055;48.854;9.302;2023-03-30T06:39:40;13.30;99.90
2100;DHT22;1055;48.854;9.302;2023-03-30T06:42:05;13.50;99.90
2100;DHT22;1055;48.854;9.302;2023-03-30T06:44:32;13.70;99.90
2100;DHT22;1055;48.854;9.302;2023-03-30T06:46:58;13.80;99.90
2100;DHT22;1055;48.854;9.302;2023-03-30T06:49:25;13.80;99.90
2100;DHT22;1055;48.854;9.302;2023-03-30T06:51:50;13.70;99.90
2100;DHT22;1055;48.854;9.302;2023-03-30T06:54:16;13.70;99.90
2100;DHT22;1055;48.854;9.302;2023-03-30T06:56:45;13.70;99.90
2100;DHT22;1055;48.854;9.302;2023-03-30T06:59:11;13.80;99.90
2100;DHT22;1055;48.854;9.302;2023-03-30T07:01:38;13.70;99.90
2100;DHT22;1055;48.854;9.302;2023-03-30T07:04:03;13.80;99.90
2100;DHT22;1055;48.854;9.302;2023-03-30T07:06:29;13.80;99.90
2100;DHT22;1055;48.854;9.302;2023-03-30T07:08:56;13.80;99.90
2100;DHT22;1055;48.854;9.302;2023-03-30T07:11:21;13.80;99.90
2100;DHT22;1055;48.854;9.302;2023-03-30T07:13:47;13.80;99.90
2100;DHT22;1055;48.854;9.302;2023-03-30T07:16:13;13.80;99.90
2100;DHT22;1055;48.854;9.302;2023-03-30T07:18:38;13.80;99.90
2100;DHT22;1055;48.854;9.302;2023-03-30T07:21:05;13.70;99.90
2100;DHT22;1055;48.854;9.302;2023-03-30T07:23:33;13.70;99.90
2100;DHT22;1055;48.854;9.302;2023-03-30T07:26:00;13.70;99.90
2100;DHT22;1055;48.854;9.302;2023-03-30T07:28:25;13.60;99.90
2100;DHT22;1055;48.854;9.302;2023-03-30T07:30:51;13.50;99.90
2100;DHT22;1055;48.854;9.302;2023-03-30T07:33:17;13.40;99.90
2100;DHT22;1055;48.854;9.302;2023-03-30T07:35:44;13.30;99.90
2100;DHT22;1055;48.854;9.302;2023-03-30T07:38:12;13.20;99.90
2100;DHT22;1055;48.854;9.302;2023-03-30T07:40:38;13.10;99.90
2100;DHT22;1055;48.854;9.302;2023-03-30T07:43:05;12.90;99.90
2100;DHT22;1055;48.854;9.302;2023-03-30T07:45:32;12.90;99.90
2100;DHT22;1055;48.854;9.302;2023-03-30T07:47:57;13.00;99.90
2100;DHT22;1055;48.854;9.302;2023-03-30T07:50:23;13.00;99.90
2100;DHT22;1055;48.854;9.302;2023-03-30T07:52:50;13.10;99.90
2100;DHT22;1055;48.854;9.302;2023-03-30T07:55:16;13.20;99.90
2100;DHT22;1055;48.854;9.302;2023-03-30T07:57:42;13.30;99.90
2100;DHT22;1055;48.854;9.302;2023-03-30T08:00:09;13.20;99.90
2100;DHT22;1055;48.854;9.302;2023-03-30T08:02:35;13.10;99.90
2100;DHT22;1055;48.854;9.302;2023-03-30T08:05:01;13.10;99.90
2100;DHT22;1055;48.854;9.302;2023-03-30T08:07:27;13.20;99.90
2100;DHT22;1055;48.854;9.302;2023-03-30T08:09:53;13.40;99.90
2100;DHT22;1055;48.854;9.302;2023-03-30T08:12:19;13.40;99.90
2100;DHT22;1055;48.854;9.302;2023-03-30T08:14:44;13.50;99.90
2100;DHT22;1055;48.854;9.302;2023-03-30T08:17:10;13.70;99.90
2100;DHT22;1055;48.854;9.302;2023-03-30T08:19:36;13.80;99.90
2100;DHT22;1055;48.854;9.302;2023-03-30T08:22:02;13.60;99.90
2100;DHT22;1055;48.854;9.302;2023-03-30T08:24:28;13.40;99.90
2100;DHT22;1055;48.854;9.302;2023-03-30T08:26:53;13.40;99.90
2100;DHT22;1055;48.854;9.302;2023-03-30T08:29:19;13.40;99.90
2100;DHT22;1055;48.854;9.302;2023-03-30T08:31:45;13.50;99.90
2100;DHT22;1055;48.854;9.302;2023-03-30T08:34:11;13.30;99.90
2100;DHT22;1055;48.854;9.302;2023-03-30T08:36:37;13.40;99.90
2100;DHT22;1055;48.854;9.302;2023-03-30T08:39:03;13.40;99.90
2100;DHT22;1055;48.854;9.302;2023-03-30T08:47:13;13.00;99.90
2100;DHT22;1055;48.854;9.302;2023-03-30T08:49:45;13.30;99.90
2100;DHT22;1055;48.854;9.302;2023-03-30T08:52:20;13.30;99.90
2100;DHT22;1055;48.854;9.302;2023-03-30T08:54:46;13.40;99.90
2100;DHT22;1055;48.854;9.302;2023-03-30T09:00:07;12.70;99.90
2100;DHT22;1055;48.854;9.302;2023-03-30T09:02:41;13.00;99.90
2100;DHT22;1055;48.854;9.302;2023-03-30T09:05:31;12.90;99.90
2100;DHT22;1055;48.854;9.302;2023-03-30T09:08:16;13.00;99.90
2100;DHT22;1055;48.854;9.302;2023-03-30T09:10:55;13.20;99.90
2100;DHT22;1055;48.854;9.302;2023-03-30T09:13:24;13.10;99.90
2100;DHT22;1055;48.854;9.302;2023-03-30T09:16:11;13.20;99.90
2100;DHT22;1055;48.854;9.302;2023-03-30T09:18:41;13.30;99.90
2100;DHT22;1055;48.854;9.302;2023-03-30T09:21:09;13.40;99.90
2100;DHT22;1055;48.854;9.302;2023-03-30T09:23:36;13.20;99.90
2100;DHT22;1055;48.854;9.302;2023-03-30T09:26:14;13.10;99.90
2100;DHT22;1055;48.854;9.302;2023-03-30T09:29:05;13.00;99.90
2100;DHT22;1055;48.854;9.302;2023-03-30T09:31:40;13.00;99.90
2100;DHT22;1055;48.854;9.302;2023-03-30T09:34:28;12.90;99.90
2100;DHT22;1055;48.854;9.302;2023-03-30T09:37:03;12.90;99.90
2100;DHT22;1055;48.854;9.302;2023-03-30T09:39:30;13.20;99.90
2100;DHT22;1055;48.854;9.302;2023-03-30T09:44:59;12.80;99.90
2100;DHT22;1055;48.854;9.302;2023-03-30T09:47:33;12.50;99.90
2100;DHT22;1055;48.854;9.302;2023-03-30T09:50:10;12.70;99.90
2100;DHT22;1055;48.854;9.302;2023-03-30T09:52:39;12.60;99.90
2100;DHT22;1055;48.854;9.302;2023-03-30T09:57:49;12.70;99.90
2100;DHT22;1055;48.854;9.302;2023-03-30T10:03:00;12.70;99.90
2100;DHT22;1055;48.854;9.302;2023-03-30T10:05:28;12.80;99.90
2100;DHT22;1055;48.854;9.302;2023-03-30T10:08:05;13.00;99.90
2100;DHT22;1055;48.854;9.302;2023-03-30T10:10:41;13.00;99.90
2100;DHT22;1055;48.854;9.302;2023-03-30T10:13:15;13.00;99.90
2100;DHT22;1055;48.854;9.302;2023-03-30T10:15:43;13.10;99.90
2100;DHT22;1055;48.854;9.302;2023-03-30T10:18:51;13.20;99.90
2100;DHT22;1055;48.854;9.302;2023-03-30T10:21:17;13.20;99.90
2100;DHT22;1055;48.854;9.302;2023-03-30T10:23:45;13.30;99.90
2100;DHT22;1055;48.854;9.302;2023-03-30T10:26:17;13.40;99.90
2100;DHT22;1055;48.854;9.302;2023-03-30T10:28:54;13.20;99.90
2100;DHT22;1055;48.854;9.302;2023-03-30T10:31:20;13.30;99.90
2100;DHT22;1055;48.854;9.302;2023-03-30T10:33:46;13.30;99.90
2100;DHT22;1055;48.854;9.302;2023-03-30T10:36:14;13.30;99.90
2100;DHT22;1055;48.854;9.302;2023-03-30T10:38:42;13.50;99.90
2100;DHT22;1055;48.854;9.302;2023-03-30T10:41:12;13.30;99.90
2100;DHT22;1055;48.854;9.302;2023-03-30T10:43:38;13.20;99.90
2100;DHT22;1055;48.854;9.302;2023-03-30T10:46:25;13.30;99.90
2100;DHT22;1055;48.854;9.302;2023-03-30T10:49:16;13.40;99.90
2100;DHT22;1055;48.854;9.302;2023-03-30T10:51:54;13.40;99.90
2100;DHT22;1055;48.854;9.302;2023-03-30T10:57:13;13.30;99.90
2100;DHT22;1055;48.854;9.302;2023-03-30T11:00:03;13.30;99.90
2100;DHT22;1055;48.854;9.302;2023-03-30T11:02:58;13.30;99.90
2100;DHT22;1055;48.854;9.302;2023-03-30T11:05:36;13.20;99.90
2100;DHT22;1055;48.854;9.302;2023-03-30T11:08:16;13.30;99.90
2100;DHT22;1055;48.854;9.302;2023-03-30T11:10:44;13.50;99.90
2100;DHT22;1055;48.854;9.302;2023-03-30T11:13:25;13.40;99.90
2100;DHT22;1055;48.854;9.302;2023-03-30T11:15:54;13.50;99.90
2100;DHT22;1055;48.854;9.302;2023-03-30T11:20:59;13.80;99.90
2100;DHT22;1055;48.854;9.302;2023-03-30T11:23:44;13.90;99.90
2100;DHT22;1055;48.854;9.302;2023-03-30T11:26:37;14.10;99.90
2100;DHT22;1055;48.854;9.302;2023-03-30T11:29:34;14.40;99.90
2100;DHT22;1055;48.854;9.302;2023-03-30T11:40:46;15.00;99.90
2100;DHT22;1055;48.854;9.302;2023-03-30T11:43:15;15.00;99.90
2100;DHT22;1055;48.854;9.302;2023-03-30T11:45:56;15.10;99.90
2100;DHT22;1055;48.854;9.302;2023-03-30T11:51:37;15.00;99.90
2100;DHT22;1055;48.854;9.302;2023-03-30T12:00:33;14.80;99.90
2100;DHT22;1055;48.854;9.302;2023-03-30T12:03:15;14.80;99.90
2100;DHT22;1055;48.854;9.302;2023-03-30T12:05:52;14.80;99.90
2100;DHT22;1055;48.854;9.302;2023-03-30T12:08:41;14.80;99.90
2100;DHT22;1055;48.854;9.302;2023-03-30T12:13:42;14.80;99.90
2100;DHT22;1055;48.854;9.302;2023-03-30T12:16:11;14.80;99.90
2100;DHT22;1055;48.854;9.302;2023-03-30T12:24:14;15.00;99.90
2100;DHT22;1055;48.854;9.302;2023-03-30T12:26:42;15.10;99.90
2100;DHT22;1055;48.854;9.302;2023-03-30T12:29:11;15.10;99.90
2100;DHT22;1055;48.854;9.302;2023-03-30T12:34:35;15.20;99.90
2100;DHT22;1055;48.854;9.302;2023-03-30T12:39:45;15.50;99.90
2100;DHT22;1055;48.854;9.302;2023-03-30T12:42:25;15.70;99.90
2100;DHT22;1055;48.854;9.302;2023-03-30T12:45:01;15.80;99.90
2100;DHT22;1055;48.854;9.302;2023-03-30T12:58:30;16.50;99.90
2100;DHT22;1055;48.854;9.302;2023-03-30T13:06:36;16.40;99.90
2100;DHT22;1055;48.854;9.302;2023-03-30T13:14:44;16.40;99.90
2100;DHT22;1055;48.854;9.302;2023-03-30T13:27:43;16.60;99.90
2100;DHT22;1055;48.854;9.302;2023-03-30T13:32:52;17.30;99.90
2100;DHT22;1055;48.854;9.302;2023-03-30T13:43:52;17.20;99.90
2100;DHT22;1055;48.854;9.302;2023-03-30T13:47:00;17.40;99.90
2100;DHT22;1055;48.854;9.302;2023-03-30T13:51:48;17.40;99.90
2100;DHT22;1055;48.854;9.302;2023-03-30T13:54:25;16.90;99.90
2100;DHT22;1055;48.854;9.302;2023-03-30T13:59:37;17.00;99.90
2100;DHT22;1055;48.854;9.302;2023-03-30T14:02:04;17.20;99.90
2100;DHT22;1055;48.854;9.302;2023-03-30T14:04:32;17.60;99.90
2100;DHT22;1055;48.854;9.302;2023-03-30T14:07:21;17.70;99.90
2100;DHT22;1055;48.854;9.302;2023-03-30T14:10:10;17.40;99.90
2100;DHT22;1055;48.854;9.302;2023-03-30T14:12:39;17.40;99.90
2100;DHT22;1055;48.854;9.302;2023-03-30T14:15:24;17.10;99.90
2100;DHT22;1055;48.854;9.302;2023-03-30T14:17:58;17.20;99.90
2100;DHT22;1055;48.854;9.302;2023-03-30T14:20:51;17.30;99.90
2100;DHT22;1055;48.854;9.302;2023-03-30T14:23:27;17.60;99.90
2100;DHT22;1055;48.854;9.302;2023-03-30T14:26:00;17.30;99.90
2100;DHT22;1055;48.854;9.302;2023-03-30T14:28:28;17.00;99.90
2100;DHT22;1055;48.854;9.302;2023-03-30T14:31:00;16.80;99.90
2100;DHT22;1055;48.854;9.302;2023-03-30T14:33:30;16.60;99.90
2100;DHT22;1055;48.854;9.302;2023-03-30T14:35:58;16.90;99.90
2100;DHT22;1055;48.854;9.302;2023-03-30T14:38:32;17.00;99.90
2100;DHT22;1055;48.854;9.302;2023-03-30T14:43:32;16.70;99.90
2100;DHT22;1055;48.854;9.302;2023-03-30T14:46:03;16.60;99.90
2100;DHT22;1055;48.854;9.302;2023-03-30T14:48:35;16.50;99.90
2100;DHT22;1055;48.854;9.302;2023-03-30T14:51:05;16.50;99.90
2100;DHT22;1055;48.854;9.302;2023-03-30T14:53:34;16.60;99.90
2100;DHT22;1055;48.854;9.302;2023-03-30T14:56:00;16.70;99.90
2100;DHT22;1055;48.854;9.302;2023-03-30T14:58:29;16.60;99.90
2100;DHT22;1055;48.854;9.302;2023-03-30T15:00:58;16.40;99.90
2100;DHT22;1055;48.854;9.302;2023-03-30T15:03:27;16.30;99.90
2100;DHT22;1055;48.854;9.302;2023-03-30T15:05:55;16.00;99.90
2100;DHT22;1055;48.854;9.302;2023-03-30T15:08:30;15.60;99.90
2100;DHT22;1055;48.854;9.302;2023-03-30T15:11:01;15.40;99.90
2100;DHT22;1055;48.854;9.302;2023-03-30T15:13:43;15.50;99.90
2100;DHT22;1055;48.854;9.302;2023-03-30T15:16:14;16.30;99.90
2100;DHT22;1055;48.854;9.302;2023-03-30T15:18:42;16.80;99.90
2100;DHT22;1055;48.854;9.302;2023-03-30T15:21:08;17.10;99.90
2100;DHT22;1055;48.854;9.302;2023-03-30T15:23:38;17.60;99.90
2100;DHT22;1055;48.854;9.302;2023-03-30T15:26:06;17.80;99.90
2100;DHT22;1055;48.854;9.302;2023-03-30T15:28:39;17.90;99.90
2100;DHT22;1055;48.854;9.302;2023-03-30T15:31:09;17.90;99.90
2100;DHT22;1055;48.854;9.302;2023-03-30T15:36:16;17.60;99.90
2100;DHT22;1055;48.854;9.302;2023-03-30T15:38:46;17.10;99.90
2100;DHT22;1055;48.854;9.302;2023-03-30T15:41:13;16.80;99.90
2100;DHT22;1055;48.854;9.302;2023-03-30T15:44:10;16.70;99.90
2100;DHT22;1055;48.854;9.302;2023-03-30T15:46:36;16.50;99.90
2100;DHT22;1055;48.854;9.302;2023-03-30T15:49:03;16.10;99.90
2100;DHT22;1055;48.854;9.302;2023-03-30T15:51:34;16.10;99.90
2100;DHT22;1055;48.854;9.302;2023-03-30T15:54:26;16.20;99.90
2100;DHT22;1055;48.854;9.302;2023-03-30T15:57:03;16.70;99.90
2100;DHT22;1055;48.854;9.302;2023-03-30T15:59:39;17.20;99.90
2100;DHT22;1055;48.854;9.302;2023-03-30T16:02:22;17.20;99.90
2100;DHT22;1055;48.854;9.302;2023-03-30T16:04:48;17.40;99.90
2100;DHT22;1055;48.854;9.302;2023-03-30T16:07:19;17.30;99.90
2100;DHT22;1055;48.854;9.302;2023-03-30T16:09:46;17.70;99.90
2100;DHT22;1055;48.854;9.302;2023-03-30T16:12:14;17.90;99.90
2100;DHT22;1055;48.854;9.302;2023-03-30T16:14:40;18.00;99.90
2100;DHT22;1055;48.854;9.302;2023-03-30T16:17:06;18.00;99.90
2100;DHT22;1055;48.854;9.302;2023-03-30T16:19:32;17.90;99.90
2100;DHT22;1055;48.854;9.302;2023-03-30T16:21:57;17.90;99.90
2100;DHT22;1055;48.854;9.302;2023-03-30T16:24:23;17.60;99.90
2100;DHT22;1055;48.854;9.302;2023-03-30T16:26:48;17.50;99.90
2100;DHT22;1055;48.854;9.302;2023-03-30T16:29:19;17.70;99.90
2100;DHT22;1055;48.854;9.302;2023-03-30T16:31:46;18.00;99.90
2100;DHT22;1055;48.854;9.302;2023-03-30T16:34:12;18.20;99.90
2100;DHT22;1055;48.854;9.302;2023-03-30T16:36:37;18.00;98.30
2100;DHT22;1055;48.854;9.302;2023-03-30T16:39:03;17.90;97.00
2100;DHT22;1055;48.854;9.302;2023-03-30T16:41:32;18.10;96.90
2100;DHT22;1055;48.854;9.302;2023-03-30T16:43:57;18.10;96.10
2100;DHT22;1055;48.854;9.302;2023-03-30T16:46:23;17.70;96.20
2100;DHT22;1055;48.854;9.302;2023-03-30T16:48:49;17.80;96.20
2100;DHT22;1055;48.854;9.302;2023-03-30T16:51:14;17.60;96.50
2100;DHT22;1055;48.854;9.302;2023-03-30T16:53:41;17.60;96.80
2100;DHT22;1055;48.854;9.302;2023-03-30T16:56:14;17.50;96.60
2100;DHT22;1055;48.854;9.302;2023-03-30T16:58:40;16.80;97.50
2100;DHT22;1055;48.854;9.302;2023-03-30T17:01:09;16.90;98.40
2100;DHT22;1055;48.854;9.302;2023-03-30T17:03:37;16.60;99.10
2100;DHT22;1055;48.854;9.302;2023-03-30T17:06:03;16.50;98.90
2100;DHT22;1055;48.854;9.302;2023-03-30T17:08:29;16.40;99.90
2100;DHT22;1055;48.854;9.302;2023-03-30T17:10:57;16.20;99.90
2100;DHT22;1055;48.854;9.302;2023-03-30T17:13:25;16.00;99.90
2100;DHT22;1055;48.854;9.302;2023-03-30T17:15:51;16.00;99.90
2100;DHT22;1055;48.854;9.302;2023-03-30T17:18:22;15.90;99.90
2100;DHT22;1055;48.854;9.302;2023-03-30T17:20:50;15.80;99.90
2100;DHT22;1055;48.854;9.302;2023-03-30T17:23:17;15.80;99.90
2100;DHT22;1055;48.854;9.302;2023-03-30T17:25:44;15.70;99.90
2100;DHT22;1055;48.854;9.302;2023-03-30T17:28:19;15.50;99.90
2100;DHT22;1055;48.854;9.302;2023-03-30T17:30:46;15.30;99.90
2100;DHT22;1055;48.854;9.302;2023-03-30T17:33:12;15.10;99.90
2100;DHT22;1055;48.854;9.302;2023-03-30T17:35:38;14.90;99.90
2100;DHT22;1055;48.854;9.302;2023-03-30T17:38:05;14.70;99.90
2100;DHT22;1055;48.854;9.302;2023-03-30T17:40:33;14.50;99.90
2100;DHT22;1055;48.854;9.302;2023-03-30T17:43:04;14.50;99.90
2100;DHT22;1055;48.854;9.302;2023-03-30T17:45:29;14.40;99.90
2100;DHT22;1055;48.854;9.302;2023-03-30T17:47:55;14.30;99.90
2100;DHT22;1055;48.854;9.302;2023-03-30T17:50:30;14.20;99.90
2100;DHT22;1055;48.854;9.302;2023-03-30T17:52:57;14.20;99.90
2100;DHT22;1055;48.854;9.302;2023-03-30T17:55:25;14.00;99.90
2100;DHT22;1055;48.854;9.302;2023-03-30T17:57:51;14.00;99.90
2100;DHT22;1055;48.854;9.302;2023-03-30T18:00:25;14.00;99.90
2100;DHT22;1055;48.854;9.302;2023-03-30T18:02:52;13.90;99.90
2100;DHT22;1055;48.854;9.302;2023-03-30T18:05:20;13.80;99.90
2100;DHT22;1055;48.854;9.302;2023-03-30T18:07:46;13.70;99.90
2100;DHT22;1055;48.854;9.302;2023-03-30T18:10:35;13.60;99.90
2100;DHT22;1055;48.854;9.302;2023-03-30T18:13:02;13.60;99.90
2100;DHT22;1055;48.854;9.302;2023-03-30T18:15:28;13.70;99.90
2100;DHT22;1055;48.854;9.302;2023-03-30T18:17:54;13.70;99.90
2100;DHT22;1055;48.854;9.302;2023-03-30T18:20:28;13.70;99.90
2100;DHT22;1055;48.854;9.302;2023-03-30T18:22:54;13.70;99.90
2100;DHT22;1055;48.854;9.302;2023-03-30T18:25:21;13.60;99.90
2100;DHT22;1055;48.854;9.302;2023-03-30T18:27:47;13.60;99.90
2100;DHT22;1055;48.854;9.302;2023-03-30T18:30:32;13.60;99.90
2100;DHT22;1055;48.854;9.302;2023-03-30T18:33:02;13.50;99.90
2100;DHT22;1055;48.854;9.302;2023-03-30T18:35:29;13.50;99.90
2100;DHT22;1055;48.854;9.302;2023-03-30T18:37:56;13.50;99.90
2100;DHT22;1055;48.854;9.302;2023-03-30T18:40:23;13.50;99.90
2100;DHT22;1055;48.854;9.302;2023-03-30T18:42:50;13.40;99.90
2100;DHT22;1055;48.854;9.302;2023-03-30T18:47:47;13.20;99.90
2100;DHT22;1055;48.854;9.302;2023-03-30T18:50:35;13.30;99.90
2100;DHT22;1055;48.854;9.302;2023-03-30T18:53:01;13.10;99.90